COOK1: Arkansas River Nr Coolidge, KS

                                SHEF ID:       COOK1     ARKANSAS R NR COOLIDGE, KS
STATION TYPE:
Regulating: Stage = 8.00, Flow = 2050

PRECIP STAGE STAGE(2) RIV-FLOW WTR-TEMP CONDUCT BAT-LOAD
in ft ft cfs F umho/cm volt
Ccp-Rev Ccp-Rev Ccp-Rev Ccp-Rev Ccp-Rev Ccp-Rev Ccp-Rev
(America/Chicago)
06/10 00:00 0.00 3.01 3.04 107 71.02 5526 12.95
06/10 01:00 0.00 3.00 3.04 106 70.18 5571 12.95
06/10 02:00 0.00 3.00 3.03 106 69.48 5584 12.89
06/10 03:00 0.00 3.01 3.04 107 68.72 5566 12.89
06/10 04:00 0.00 3.02 3.06 108 67.95 5531 12.89
06/10 05:00 0.00 3.01 3.06 107 67.33 5492 12.89
06/10 06:00 0.00 3.02 3.06 108 66.69 5447 12.83
06/10 07:00 0.00 3.01 3.05 107 66.29 5427 12.77
06/10 08:00 0.00 3.02 3.05 108 66.15 5443 12.83
06/10 09:00 0.00 3.01 3.03 107 66.16 5463 13.00
06/10 10:00 0.00 3.00 3.04 106 66.42 5465 13.36
06/10 11:00 0.00 3.00 3.06 106 67.42 5432 13.65
06/10 12:00 0.00 3.00 3.03 106 69.10 5359 13.65
06/10 13:00 0.00 3.00 3.04 106 70.43 5324 13.77
06/10 14:00 0.00 3.01 3.05 107 72.01 5337 13.65
06/10 15:00 0.00 3.02 3.06 108 72.82 5357 13.42
06/10 16:00 0.00 3.01 3.04 107 73.71 5380 13.36
06/10 17:00 0.00 3.01 3.04 107 75.04 5389 13.65
06/10 18:00 0.00 3.01 3.02 107 76.33 5411 13.42
06/10 19:00 0.00 2.99 3.02 104 76.32 5445 13.18
06/10 20:00 0.00 2.97 3.00 102 75.38 5494 13.18
06/10 21:00 0.00 2.73 2.76 75 74.35 5558 13.07
06/10 22:00 0.00 2.69 2.72 71 72.75 5715 13.00
06/10 23:00 0.00 2.66 2.69 68 71.96 5713 13.00
Data processed at Tue 11Jun2024 04:30 GMT

Parsing this webpage?

Checkout our new Data API! CWMSDataAPI (CDA)

Timeseries IDs (TSIDs)

TSIDs used from left to right in the data table
COOL.Precip-Inc.Total.1Hour.1Hour.Ccp-Rev
COOL.Stage.Inst.1Hour.0.Ccp-Rev
COOL.Stage-Alt.Inst.1Hour.0.Ccp-Rev
COOL.Flow.Inst.1Hour.0.Ccp-Rev
COOL.Temp-Water.Inst.1Hour.0.Ccp-Rev
COOL.Cond.Inst.1Hour.0.Ccp-Rev
COOL.Volt-Battery Load.Inst.1Hour.0.Ccp-Rev

                            

All information presented herein is the property of the government of the United States of America and may be revised or deleted at any time without prior notice. Dissemination of this information without the expressed written consent of the Public Affairs Office, Tulsa District U.S. Army Corps of Engineers is strictly prohibited. These data are gathered electronically and, as presented, have NOT undergone any form of quality control. These data are NOT guaranteed to be valid or correct.